createdAt,value
2018-09-15T00:00:25.543Z,95239.84
2018-09-15T00:02:51.883Z,95243.56
2018-09-15T00:05:18.204Z,95240.20
2018-09-15T00:07:44.525Z,95244.02
2018-09-15T00:10:10.873Z,95241.91
2018-09-15T00:12:37.341Z,95247.23
2018-09-15T00:15:03.700Z,95242.91
2018-09-15T00:17:30.123Z,95245.94
2018-09-15T00:19:56.568Z,95240.88
2018-09-15T00:22:22.909Z,95244.33
2018-09-15T00:24:49.288Z,95242.25
2018-09-15T00:27:15.628Z,95241.88
2018-09-15T00:29:41.972Z,95237.61
2018-09-15T00:32:08.312Z,95242.10
2018-09-15T00:34:34.828Z,95243.02
2018-09-15T00:37:01.158Z,95249.00
2018-09-15T00:39:27.527Z,95255.11
2018-09-15T00:41:53.984Z,95243.89
2018-09-15T00:44:20.333Z,95245.59
2018-09-15T00:46:46.670Z,95244.11
2018-09-15T00:49:13.035Z,95246.27
2018-09-15T00:51:39.364Z,95246.33
2018-09-15T00:54:05.741Z,95247.69
2018-09-15T00:56:32.081Z,95247.73
2018-09-15T00:58:58.446Z,95248.23
2018-09-15T01:01:24.783Z,95243.55
2018-09-15T01:03:51.255Z,95247.17
2018-09-15T01:06:17.692Z,95249.79
2018-09-15T01:08:44.069Z,95247.30
2018-09-15T01:11:10.424Z,95245.42
2018-09-15T01:13:36.897Z,95252.90
2018-09-15T01:16:03.263Z,95261.03
2018-09-15T01:18:29.623Z,95260.25
2018-09-15T01:20:56.031Z,95262.08
2018-09-15T01:23:22.463Z,95261.17
2018-09-15T01:25:48.812Z,95264.33
2018-09-15T01:28:15.148Z,95262.63
2018-09-15T01:30:41.476Z,95261.05
2018-09-15T01:33:07.823Z,95265.94
2018-09-15T01:35:34.146Z,95261.05
2018-09-15T01:38:00.540Z,95270.69
2018-09-15T01:40:26.889Z,95267.91
2018-09-15T01:42:53.530Z,95265.63
2018-09-15T01:45:19.893Z,95263.93
2018-09-15T01:47:46.236Z,95254.01
2018-09-15T01:50:12.571Z,95255.14
2018-09-15T01:52:38.935Z,95250.78
2018-09-15T01:55:05.362Z,95250.05
2018-09-15T01:57:31.734Z,95245.84
2018-09-15T01:59:58.074Z,95247.27
2018-09-15T02:02:24.412Z,95244.70
2018-09-15T02:04:50.907Z,95246.45
2018-09-15T02:07:17.259Z,95241.38
2018-09-15T02:09:43.646Z,95246.06
2018-09-15T02:12:09.980Z,95242.30
2018-09-15T02:14:36.321Z,95251.92
2018-09-15T02:17:02.663Z,95248.02
2018-09-15T02:19:29.085Z,95249.52
2018-09-15T02:21:55.485Z,95252.80
2018-09-15T02:24:21.832Z,95257.33
2018-09-15T02:26:48.171Z,95250.31
2018-09-15T02:29:14.508Z,95254.25
2018-09-15T02:31:40.839Z,95250.95
2018-09-15T02:34:07.183Z,95247.30
2018-09-15T02:36:33.545Z,95250.66
2018-09-15T02:38:59.897Z,95243.35
2018-09-15T02:41:26.279Z,95246.84
2018-09-15T02:43:52.652Z,95255.48
2018-09-15T02:46:18.981Z,95254.14
2018-09-15T02:48:45.320Z,95250.96
2018-09-15T02:51:11.681Z,95250.50
2018-09-15T02:53:38.035Z,95252.78
2018-09-15T02:56:04.413Z,95257.23
2018-09-15T02:58:30.752Z,95257.97
2018-09-15T03:00:57.090Z,95254.56
2018-09-15T03:03:23.453Z,95259.52
2018-09-15T03:05:49.812Z,95254.28
2018-09-15T03:08:16.164Z,95263.84
2018-09-15T03:10:42.549Z,95271.14
2018-09-15T03:13:08.923Z,95268.64
2018-09-15T03:15:35.266Z,95272.04
2018-09-15T03:18:01.609Z,95267.57
2018-09-15T03:20:27.953Z,95270.84
2018-09-15T03:22:54.284Z,95267.16
2018-09-15T03:25:20.657Z,95268.58
2018-09-15T03:27:47.031Z,95269.40
2018-09-15T03:30:13.367Z,95266.13
2018-09-15T03:32:39.675Z,95270.89
2018-09-15T03:35:06.014Z,95272.05
2018-09-15T03:37:32.400Z,95270.19
2018-09-15T03:39:58.731Z,95275.16
2018-09-15T03:42:25.073Z,95276.25
2018-09-15T03:44:51.547Z,95277.99
2018-09-15T03:47:18.000Z,95276.78
2018-09-15T03:49:44.336Z,95277.03
2018-09-15T03:52:10.668Z,95272.85
2018-09-15T03:54:36.995Z,95282.47
2018-09-15T03:57:03.347Z,95288.53
2018-09-15T03:59:29.748Z,95291.88
2018-09-15T04:01:56.079Z,95286.98
2018-09-15T04:04:22.506Z,95293.95
2018-09-15T04:06:48.904Z,95296.56
2018-09-15T04:09:15.277Z,95294.36
2018-09-15T04:11:41.651Z,95296.23
2018-09-15T04:14:08.044Z,95302.16
2018-09-15T04:16:34.399Z,95305.98
2018-09-15T04:19:00.798Z,95306.02
2018-09-15T04:21:27.133Z,95316.71
2018-09-15T04:23:53.488Z,95316.67
2018-09-15T04:26:19.811Z,95316.30
2018-09-15T04:28:46.150Z,95308.88
2018-09-15T04:31:12.512Z,95309.25
2018-09-15T04:33:38.839Z,95310.79
2018-09-15T04:36:05.168Z,95317.42
2018-09-15T04:38:31.528Z,95313.19
2018-09-15T04:40:57.895Z,95323.80
2018-09-15T04:43:24.227Z,95322.94
2018-09-15T04:45:50.770Z,95324.88
2018-09-15T04:48:17.093Z,95328.94
2018-09-15T04:50:43.423Z,95338.16
2018-09-15T04:53:09.757Z,95337.93
2018-09-15T04:55:36.100Z,95337.27
2018-09-15T04:58:02.418Z,95340.04
2018-09-15T05:00:28.743Z,95337.01
2018-09-15T05:02:55.107Z,95347.80
2018-09-15T05:05:21.438Z,95351.20
2018-09-15T05:07:47.785Z,95349.66
2018-09-15T05:10:14.125Z,95343.48
2018-09-15T05:12:40.537Z,95341.61
2018-09-15T05:15:06.893Z,95348.24
2018-09-15T05:17:33.236Z,95346.20
2018-09-15T05:19:59.565Z,95352.72
2018-09-15T05:22:25.930Z,95347.27
2018-09-15T05:24:52.928Z,95350.83
2018-09-15T05:27:19.259Z,95353.19
2018-09-15T05:29:45.588Z,95352.24
2018-09-15T05:32:11.956Z,95356.35
2018-09-15T05:34:38.292Z,95357.45
2018-09-15T05:37:04.648Z,95353.06
2018-09-15T05:39:31.008Z,95353.27
2018-09-15T05:41:57.384Z,95354.38
2018-09-15T05:44:23.981Z,95359.39
2018-09-15T05:46:50.594Z,95355.77
2018-09-15T05:49:16.943Z,95354.44
2018-09-15T05:51:43.286Z,95359.01
2018-09-15T05:54:09.629Z,95355.19
2018-09-15T05:56:35.999Z,95363.72
2018-09-15T05:59:02.343Z,95365.75
2018-09-15T06:01:28.747Z,95369.86
2018-09-15T06:03:55.124Z,95362.55
2018-09-15T06:06:21.442Z,95369.18
2018-09-15T06:08:47.773Z,95371.20
2018-09-15T06:11:14.170Z,95371.91
2018-09-15T06:13:40.592Z,95370.36
2018-09-15T06:16:06.929Z,95370.68
2018-09-15T06:18:33.295Z,95362.91
2018-09-15T06:20:59.668Z,95367.88
2018-09-15T06:23:25.999Z,95372.12
2018-09-15T06:25:52.375Z,95372.86
2018-09-15T06:28:18.695Z,95372.19
2018-09-15T06:30:45.029Z,95371.31
2018-09-15T06:33:11.351Z,95372.43
2018-09-15T06:35:37.754Z,95375.20
2018-09-15T06:38:04.220Z,95376.86
2018-09-15T06:40:30.575Z,95374.11
2018-09-15T06:42:56.908Z,95369.69
2018-09-15T06:45:23.385Z,95376.83
2018-09-15T06:47:49.759Z,95379.28
2018-09-15T06:50:16.130Z,95379.09
2018-09-15T06:52:42.472Z,95379.89
2018-09-15T06:55:08.799Z,95377.63
2018-09-15T06:57:35.131Z,95377.51
2018-09-15T07:00:01.548Z,95381.23
2018-09-15T07:02:27.896Z,95381.47
2018-09-15T07:04:54.234Z,95383.92
2018-09-15T07:07:20.593Z,95380.79
2018-09-15T07:09:46.936Z,95382.54
2018-09-15T07:12:13.351Z,95379.33
2018-09-15T07:14:39.752Z,95380.94
2018-09-15T07:17:06.097Z,95377.27
2018-09-15T07:19:32.451Z,95380.17
2018-09-15T07:21:58.821Z,95381.83
2018-09-15T07:24:25.152Z,95374.47
2018-09-15T07:26:51.779Z,95374.38
2018-09-15T07:29:18.158Z,95375.95
2018-09-15T07:31:44.538Z,95379.81
2018-09-15T07:34:10.911Z,95380.51
2018-09-15T07:36:37.296Z,95378.71
2018-09-15T07:39:03.639Z,95378.71
2018-09-15T07:41:29.997Z,95376.05
2018-09-15T07:43:56.341Z,95374.21
2018-09-15T07:46:22.714Z,95374.63
2018-09-15T07:48:49.039Z,95379.65
2018-09-15T07:51:15.381Z,95377.08
2018-09-15T07:53:41.805Z,95380.42
2018-09-15T07:56:08.147Z,95370.45
2018-09-15T07:58:34.498Z,95372.57
2018-09-15T08:01:00.891Z,95374.63
2018-09-15T08:03:27.221Z,95374.59
2018-09-15T08:05:53.579Z,95381.44
2018-09-15T08:08:19.918Z,95378.31
2018-09-15T08:10:46.361Z,95379.59
2018-09-15T08:13:12.701Z,95384.70
2018-09-15T08:15:39.024Z,95379.14
2018-09-15T08:18:05.405Z,95379.97
2018-09-15T08:20:31.759Z,95380.25
2018-09-15T08:22:58.139Z,95382.00
2018-09-15T08:25:24.497Z,95381.13
2018-09-15T08:27:50.875Z,95375.97
2018-09-15T08:30:17.272Z,95378.09
2018-09-15T08:32:43.699Z,95379.38
2018-09-15T08:35:10.133Z,95376.38
2018-09-15T08:37:36.491Z,95371.18
2018-09-15T08:40:02.865Z,95369.84
2018-09-15T08:42:29.200Z,95362.86
2018-09-15T08:44:55.558Z,95367.09
2018-09-15T08:47:21.901Z,95360.64
2018-09-15T08:49:48.254Z,95365.67
2018-09-15T08:52:14.611Z,95363.92
2018-09-15T08:54:40.975Z,95363.77
2018-09-15T08:57:07.333Z,95363.69
2018-09-15T08:59:33.720Z,95360.60
2018-09-15T09:02:00.084Z,95357.56
2018-09-15T09:04:26.422Z,95354.11
2018-09-15T09:06:52.813Z,95357.44
2018-09-15T09:09:19.150Z,95356.92
2018-09-15T09:11:45.525Z,95353.00
2018-09-15T09:14:11.843Z,95351.17
2018-09-15T09:16:38.228Z,95347.26
2018-09-15T09:19:04.639Z,95342.00
2018-09-15T09:21:31.028Z,95349.38
2018-09-15T09:23:57.417Z,95352.31
2018-09-15T09:26:23.838Z,95349.14
2018-09-15T09:28:50.134Z,95340.53
2018-09-15T09:31:16.480Z,95336.62
2018-09-15T09:33:42.843Z,95337.03
2018-09-15T09:36:09.248Z,95339.43
2018-09-15T09:38:35.579Z,95335.09
2018-09-15T09:41:01.975Z,95331.64
2018-09-15T09:43:28.316Z,95334.88
2018-09-15T09:45:54.673Z,95333.16
2018-09-15T09:48:21.057Z,95334.05
2018-09-15T09:50:47.364Z,95329.40
2018-09-15T09:53:13.741Z,95330.77
2018-09-15T09:55:40.095Z,95332.47
2018-09-15T09:58:06.510Z,95328.01
2018-09-15T10:00:32.843Z,95329.35
2018-09-15T10:02:59.183Z,95323.68
2018-09-15T10:05:25.522Z,95316.30
2018-09-15T10:07:51.884Z,95318.75
2018-09-15T10:10:18.199Z,95313.59
2018-09-15T10:12:45.435Z,95314.83
2018-09-15T10:15:11.767Z,95313.55
2018-09-15T10:17:38.100Z,95308.28
2018-09-15T10:20:04.458Z,95310.38
2018-09-15T10:22:30.804Z,95310.22
2018-09-15T10:24:57.180Z,95302.48
2018-09-15T10:27:23.517Z,95307.97
2018-09-15T10:29:49.835Z,95310.40
2018-09-15T10:32:16.208Z,95307.36
2018-09-15T10:34:42.580Z,95296.95
2018-09-15T10:37:08.945Z,95305.05
2018-09-15T10:39:35.282Z,95309.29
2018-09-15T10:42:01.660Z,95307.04
2018-09-15T10:44:28.039Z,95301.42
2018-09-15T10:46:54.379Z,95303.95
2018-09-15T10:49:20.751Z,95303.43
2018-09-15T10:51:47.121Z,95303.77
2018-09-15T10:54:13.495Z,95300.25
2018-09-15T10:56:39.832Z,95301.91
2018-09-15T10:59:06.198Z,95291.59
2018-09-15T11:01:32.607Z,95294.81
2018-09-15T11:03:58.982Z,95293.38
2018-09-15T11:06:25.319Z,95293.34
2018-09-15T11:08:51.684Z,95282.42
2018-09-15T11:11:18.018Z,95290.98
2018-09-15T11:13:44.471Z,95279.27
2018-09-15T11:16:10.751Z,95284.84
2018-09-15T11:18:37.129Z,95281.39
2018-09-15T11:21:03.528Z,95282.55
2018-09-15T11:23:29.878Z,95279.09
2018-09-15T11:25:56.236Z,95275.58
2018-09-15T11:28:22.671Z,95268.16
2018-09-15T11:30:49.008Z,95269.38
2018-09-15T11:33:15.665Z,95267.98
2018-09-15T11:35:42.000Z,95272.60
2018-09-15T11:38:08.312Z,95268.73
2018-09-15T11:40:34.664Z,95271.20
2018-09-15T11:43:01.004Z,95272.41
2018-09-15T11:45:27.336Z,95266.33
2018-09-15T11:47:53.763Z,95270.50
2018-09-15T11:50:20.128Z,95269.02
2018-09-15T11:52:46.500Z,95269.91
2018-09-15T11:55:12.881Z,95265.93
2018-09-15T11:57:39.202Z,95265.84
2018-09-15T12:00:05.589Z,95252.48
2018-09-15T12:02:31.955Z,95255.00
2018-09-15T12:04:58.292Z,95251.00
2018-09-15T12:07:24.667Z,95248.78
2018-09-15T12:09:51.005Z,95247.44
2018-09-15T12:12:17.364Z,95243.02
2018-09-15T12:14:43.724Z,95237.52
2018-09-15T12:17:10.156Z,95246.18
2018-09-15T12:19:36.488Z,95247.00
2018-09-15T12:22:02.845Z,95239.62
2018-09-15T12:24:29.205Z,95239.16
2018-09-15T12:26:55.553Z,95243.95
2018-09-15T12:29:21.939Z,95237.45
2018-09-15T12:31:48.307Z,95233.75
2018-09-15T12:34:14.659Z,95235.86
2018-09-15T12:36:40.992Z,95238.77
2018-09-15T12:39:07.336Z,95228.39
2018-09-15T12:41:33.736Z,95232.22
2018-09-15T12:44:00.065Z,95230.10
2018-09-15T12:46:26.432Z,95235.48
2018-09-15T12:48:52.835Z,95236.26
2018-09-15T12:51:19.190Z,95240.95
2018-09-15T12:53:45.527Z,95237.82
2018-09-15T12:56:11.855Z,95241.23
2018-09-15T12:58:38.180Z,95237.58
2018-09-15T13:01:04.542Z,95238.54
2018-09-15T13:03:30.917Z,95237.58
2018-09-15T13:05:57.268Z,95238.08
2018-09-15T13:08:23.652Z,95229.04
2018-09-15T13:10:49.983Z,95231.13
2018-09-15T13:13:16.323Z,95231.42
2018-09-15T13:15:42.704Z,95234.89
2018-09-15T13:18:09.139Z,95231.48
2018-09-15T13:20:35.513Z,95235.30
2018-09-15T13:23:01.969Z,95233.70
2018-09-15T13:25:28.313Z,95224.56
2018-09-15T13:27:54.657Z,95222.66
2018-09-15T13:30:21.071Z,95223.55
2018-09-15T13:32:47.387Z,95221.32
2018-09-15T13:35:13.723Z,95225.25
2018-09-15T13:37:40.069Z,95217.97
2018-09-15T13:40:06.460Z,95221.32
2018-09-15T13:42:32.851Z,95211.92
2018-09-15T13:44:59.216Z,95214.41
2018-09-15T13:47:25.593Z,95216.84
2018-09-15T13:49:52.083Z,95217.17
2018-09-15T13:52:18.413Z,95215.38
2018-09-15T13:54:44.749Z,95216.41
2018-09-15T13:57:11.139Z,95215.33
2018-09-15T13:59:37.481Z,95217.86
2018-09-15T14:02:03.803Z,95221.22
2018-09-15T14:04:30.126Z,95223.44
2018-09-15T14:06:56.456Z,95221.73
2018-09-15T14:09:22.793Z,95218.73
2018-09-15T14:11:49.132Z,95226.79
2018-09-15T14:14:15.495Z,95229.23
2018-09-15T14:16:41.871Z,95230.88
2018-09-15T14:19:08.219Z,95235.91
2018-09-15T14:21:34.558Z,95234.98
2018-09-15T14:24:00.891Z,95231.52
2018-09-15T14:26:27.254Z,95234.29
2018-09-15T14:28:53.584Z,95237.15
2018-09-15T14:31:19.969Z,95233.38
2018-09-15T14:33:46.342Z,95240.20
2018-09-15T14:36:12.673Z,95236.22
2018-09-15T14:38:39.060Z,95233.16
2018-09-15T14:41:05.386Z,95244.78
2018-09-15T14:43:31.724Z,95239.13
2018-09-15T14:45:58.078Z,95238.71
2018-09-15T14:48:24.450Z,95234.45
2018-09-15T14:50:50.823Z,95237.04
2018-09-15T14:53:17.155Z,95240.09
2018-09-15T14:55:43.543Z,95245.99
2018-09-15T14:58:09.863Z,95251.63
2018-09-15T15:00:36.244Z,95250.83
2018-09-15T15:03:02.582Z,95252.53
2018-09-15T15:05:28.907Z,95253.47
2018-09-15T15:07:55.268Z,95261.21
2018-09-15T15:10:21.647Z,95259.05
2018-09-15T15:12:48.009Z,95254.34
2018-09-15T15:15:14.388Z,95252.69
2018-09-15T15:17:40.718Z,95257.03
2018-09-15T15:20:07.048Z,95258.33
2018-09-15T15:22:33.439Z,95260.11
2018-09-15T15:24:59.813Z,95252.37
2018-09-15T15:27:34.902Z,95255.83
2018-09-15T15:30:01.241Z,95263.98
2018-09-15T15:34:58.778Z,95267.14
2018-09-15T15:37:25.173Z,95266.81
2018-09-15T15:39:52.146Z,95274.55
2018-09-15T15:42:19.485Z,95281.53
2018-09-15T15:44:45.821Z,95277.77
2018-09-15T15:47:12.156Z,95286.39
2018-09-15T15:49:38.527Z,95280.70
2018-09-15T15:52:05.911Z,95290.34
2018-09-15T15:54:32.226Z,95285.65
2018-09-15T15:56:58.603Z,95287.59
2018-09-15T15:59:24.968Z,95289.81
2018-09-15T16:01:54.987Z,95297.09
2018-09-15T16:04:21.411Z,95297.61
2018-09-15T16:06:48.317Z,95302.83
2018-09-15T16:09:14.655Z,95299.09
2018-09-15T16:11:40.980Z,95306.89
2018-09-15T16:14:07.315Z,95307.81
2018-09-15T16:16:33.695Z,95313.48
2018-09-15T16:19:00.201Z,95319.05
2018-09-15T16:21:26.541Z,95326.44
2018-09-15T16:23:53.531Z,95327.31
2018-09-15T16:26:21.046Z,95327.31
2018-09-15T16:28:47.387Z,95333.59
2018-09-15T16:31:13.712Z,95329.72
2018-09-15T16:33:40.045Z,95330.19
2018-09-15T16:36:06.413Z,95325.48
2018-09-15T16:38:32.765Z,95333.01
2018-09-15T16:40:59.101Z,95347.98
2018-09-15T16:43:25.442Z,95344.57
2018-09-15T16:45:53.118Z,95347.72
2018-09-15T16:48:19.483Z,95344.76
2018-09-15T16:50:45.822Z,95347.86
2018-09-15T16:53:12.189Z,95354.00
2018-09-15T16:55:38.634Z,95360.58
2018-09-15T16:58:04.986Z,95361.88
2018-09-15T17:00:31.323Z,95363.68
2018-09-15T17:02:57.657Z,95365.93
2018-09-15T17:05:23.988Z,95364.69
2018-09-15T17:07:50.365Z,95356.30
2018-09-15T17:10:16.767Z,95359.45
2018-09-15T17:12:44.439Z,95356.45
2018-09-15T17:15:12.755Z,95358.70
2018-09-15T17:17:40.007Z,95360.46
2018-09-15T17:20:14.964Z,95360.92
2018-09-15T17:22:41.339Z,95368.31
2018-09-15T17:25:07.685Z,95366.27
2018-09-15T17:27:33.998Z,95377.11
2018-09-15T17:30:00.331Z,95381.22
2018-09-15T17:32:26.679Z,95385.23
2018-09-15T17:34:53.013Z,95386.52
2018-09-15T17:37:20.420Z,95385.75
2018-09-15T17:39:46.804Z,95387.87
2018-09-15T17:42:13.194Z,95394.55
2018-09-15T17:44:39.562Z,95395.73
2018-09-15T17:47:05.930Z,95399.34
2018-09-15T17:49:32.256Z,95402.98
2018-09-15T17:51:58.654Z,95413.77
2018-09-15T17:54:24.993Z,95412.52
2018-09-15T17:56:51.325Z,95420.58
2018-09-15T17:59:18.803Z,95419.80
2018-09-15T18:01:45.143Z,95417.40
2018-09-15T18:04:11.586Z,95420.67
2018-09-15T18:06:37.938Z,95420.08
2018-09-15T18:09:06.724Z,95421.55
2018-09-15T18:11:33.057Z,95431.96
2018-09-15T18:13:59.391Z,95437.90
2018-09-15T18:16:25.720Z,95439.37
2018-09-15T18:18:52.053Z,95437.20
2018-09-15T18:21:18.890Z,95437.94
2018-09-15T18:23:45.219Z,95439.28
2018-09-15T18:26:11.699Z,95441.86
2018-09-15T18:28:38.021Z,95446.78
2018-09-15T18:31:04.342Z,95455.02
2018-09-15T18:33:30.681Z,95453.41
2018-09-15T18:35:57.025Z,95457.73
2018-09-15T18:38:23.479Z,95463.35
2018-09-15T18:40:50.938Z,95475.83
2018-09-15T18:43:17.267Z,95473.02
2018-09-15T18:45:44.643Z,95476.33
2018-09-15T18:48:10.991Z,95480.84
2018-09-15T18:50:37.367Z,95482.82
2018-09-15T18:53:03.856Z,95482.36
2018-09-15T18:55:30.213Z,95486.36
2018-09-15T18:58:01.706Z,95484.05
2018-09-15T19:00:28.079Z,95485.58
2018-09-15T19:02:56.064Z,95488.09
2018-09-15T19:05:22.426Z,95497.41
2018-09-15T19:07:48.767Z,95491.66
2018-09-15T19:10:16.294Z,95494.63
2018-09-15T19:12:42.717Z,95502.54
2018-09-15T19:15:09.045Z,95503.78
2018-09-15T19:17:38.975Z,95504.75
2018-09-15T19:20:05.331Z,95507.28
2018-09-15T19:22:33.289Z,95511.15
2018-09-15T19:24:59.691Z,95508.57
2018-09-15T19:27:26.032Z,95510.32
2018-09-15T19:29:52.366Z,95513.13
2018-09-15T19:32:18.721Z,95515.75
2018-09-15T19:34:45.181Z,95518.23
2018-09-15T19:37:11.567Z,95523.55
2018-09-15T19:39:37.902Z,95523.09
2018-09-15T19:42:08.923Z,95520.24
2018-09-15T19:44:35.291Z,95520.75
2018-09-15T19:47:03.540Z,95525.98
2018-09-15T19:49:29.884Z,95528.70
2018-09-15T19:51:57.407Z,95535.08
2018-09-15T19:54:23.761Z,95539.09
2018-09-15T19:56:50.101Z,95540.42
2018-09-15T19:59:21.171Z,95537.80
2018-09-15T20:01:47.454Z,95537.30
2018-09-15T20:04:13.761Z,95537.61
2018-09-15T20:06:40.104Z,95537.66
2018-09-15T20:09:06.460Z,95542.85
2018-09-15T20:11:32.898Z,95539.54
2018-09-15T20:13:59.228Z,95542.04
2018-09-15T20:16:25.562Z,95537.84
2018-09-15T20:18:51.943Z,95540.77
2018-09-15T20:21:18.279Z,95535.16
2018-09-15T20:23:44.667Z,95536.69
2018-09-15T20:26:11.015Z,95537.10
2018-09-15T20:28:38.284Z,95533.87
2018-09-15T20:31:04.631Z,95544.55
2018-09-15T20:33:31.064Z,95546.20
2018-09-15T20:35:57.395Z,95555.07
2018-09-15T20:38:23.715Z,95553.73
2018-09-15T20:40:50.054Z,95556.98
2018-09-15T20:43:17.552Z,95555.44
2018-09-15T20:45:44.462Z,95559.39
2018-09-15T20:48:10.808Z,95563.56
2018-09-15T20:50:37.152Z,95560.74
2018-09-15T20:53:03.490Z,95565.22
2018-09-15T20:55:29.841Z,95564.30
2018-09-15T20:57:56.209Z,95565.17
2018-09-15T21:00:22.609Z,95559.99
2018-09-15T21:02:48.932Z,95565.77
2018-09-15T21:05:15.316Z,95563.27
2018-09-15T21:07:43.380Z,95574.16
2018-09-15T21:10:09.751Z,95562.08
2018-09-15T21:12:36.076Z,95568.31
2018-09-15T21:15:02.416Z,95571.52
2018-09-15T21:17:28.791Z,95566.37
2018-09-15T21:19:55.128Z,95574.00
2018-09-15T21:22:21.569Z,95575.34
2018-09-15T21:24:47.967Z,95574.27
2018-09-15T21:27:14.301Z,95580.61
2018-09-15T21:29:40.628Z,95580.13
2018-09-15T21:32:07.024Z,95579.00
2018-09-15T21:34:33.366Z,95577.47
2018-09-15T21:36:59.749Z,95574.94
2018-09-15T21:39:26.121Z,95579.26
2018-09-15T21:44:23.389Z,95580.45
2018-09-15T21:46:49.724Z,95581.54
2018-09-15T21:49:16.110Z,95581.59
2018-09-15T21:51:42.450Z,95580.87
2018-09-15T21:54:08.777Z,95581.00
2018-09-15T21:56:35.172Z,95587.24
2018-09-15T21:59:02.308Z,95586.69
2018-09-15T22:01:30.701Z,95582.09
2018-09-15T22:03:59.116Z,95596.26
2018-09-15T22:06:26.180Z,95595.14
2018-09-15T22:08:52.816Z,95592.02
2018-09-15T22:11:19.355Z,95593.14
2018-09-15T22:13:45.964Z,95596.59
2018-09-15T22:16:12.605Z,95600.08
2018-09-15T22:18:39.078Z,95598.55
2018-09-15T22:21:05.708Z,95595.84
2018-09-15T22:23:34.675Z,95595.09
2018-09-15T22:26:01.440Z,95594.77
2018-09-15T22:28:29.201Z,95599.42
2018-09-15T22:30:56.589Z,95602.98
2018-09-15T22:33:23.198Z,95600.88
2018-09-15T22:35:49.829Z,95605.66
2018-09-15T22:38:18.566Z,95609.56
2018-09-15T22:40:45.060Z,95607.31
2018-09-15T22:43:13.395Z,95606.98
2018-09-15T22:45:39.864Z,95607.98
2018-09-15T22:48:06.401Z,95603.66
2018-09-15T22:50:33.035Z,95604.62
2018-09-15T22:52:59.627Z,95600.05
2018-09-15T22:55:26.167Z,95606.78
2018-09-15T22:57:54.377Z,95607.77
2018-09-15T23:00:21.012Z,95603.70
2018-09-15T23:02:47.623Z,95604.41
2018-09-15T23:05:14.079Z,95605.40
2018-09-15T23:07:40.615Z,95607.14
2018-09-15T23:10:07.253Z,95604.61
2018-09-15T23:12:33.866Z,95607.14
2018-09-15T23:15:00.469Z,95604.20
2018-09-15T23:17:27.994Z,95608.59
2018-09-15T23:19:54.594Z,95615.03
2018-09-15T23:22:21.113Z,95615.12
2018-09-15T23:24:47.665Z,95616.66
2018-09-15T23:27:14.340Z,95621.19
2018-09-15T23:29:41.595Z,95616.83
2018-09-15T23:32:08.185Z,95613.17
2018-09-15T23:34:34.659Z,95615.33
2018-09-15T23:37:02.938Z,95609.60
2018-09-15T23:39:29.462Z,95611.47
2018-09-15T23:41:56.056Z,95618.36
2018-09-15T23:44:22.543Z,95615.83
2018-09-15T23:46:51.733Z,95611.42
2018-09-15T23:49:18.129Z,95618.48
2018-09-15T23:51:44.515Z,95619.81
2018-09-15T23:54:13.231Z,95618.56
2018-09-15T23:56:39.599Z,95610.84
2018-09-15T23:59:05.979Z,95613.88
